createdAt,value
2023-02-26T00:01:01.382Z,98081.75
2023-02-26T00:02:04.094Z,98081.75
2023-02-26T00:03:06.539Z,98070.37
2023-02-26T00:04:10.085Z,98066.67
2023-02-26T00:05:13.947Z,98072.03
2023-02-26T00:06:17.424Z,98071.20
2023-02-26T00:07:19.924Z,98079.23
2023-02-26T00:08:22.904Z,98077.55
2023-02-26T00:09:26.550Z,98073.20
2023-02-26T00:10:29.430Z,98067.84
2023-02-26T00:11:32.680Z,98088.27
2023-02-26T00:12:35.744Z,98089.95
2023-02-26T00:13:39.838Z,98083.77
2023-02-26T00:14:43.520Z,98079.39
2023-02-26T00:15:47.884Z,98086.45
2023-02-26T00:18:07.699Z,98086.36
2023-02-26T00:19:10.950Z,98087.44
2023-02-26T00:20:16.339Z,98095.47
2023-02-26T00:21:20.323Z,98093.78
2023-02-26T00:22:23.433Z,98092.09
2023-02-26T00:23:26.724Z,98097.60
2023-02-26T00:24:30.564Z,98100.28
2023-02-26T00:25:33.013Z,98099.61
2023-02-26T00:26:35.647Z,98100.59
2023-02-26T00:27:40.321Z,98105.12
2023-02-26T00:28:43.621Z,98100.75
2023-02-26T00:29:46.807Z,98107.09
2023-02-26T00:30:51.124Z,98109.09
2023-02-26T00:31:54.977Z,98121.62
2023-02-26T00:32:59.462Z,98124.31
2023-02-26T00:34:03.023Z,98130.69
2023-02-26T00:35:07.916Z,98131.67
2023-02-26T00:36:17.472Z,98131.83
2023-02-26T00:37:27.758Z,98129.15
2023-02-26T00:38:31.629Z,98128.28
2023-02-26T00:39:53.054Z,98136.32
2023-02-26T00:40:56.231Z,98137.34
2023-02-26T00:41:59.179Z,98133.95
2023-02-26T00:43:06.053Z,98132.26
2023-02-26T00:44:09.690Z,98129.73
2023-02-26T00:45:13.244Z,98125.24
2023-02-26T00:46:37.598Z,98115.36
2023-02-26T00:47:48.947Z,98116.34
2023-02-26T00:49:10.419Z,98118.19
2023-02-26T00:50:23.599Z,98115.52
2023-02-26T00:51:38.730Z,98109.48
2023-02-26T00:53:05.839Z,98120.19
2023-02-26T00:54:11.704Z,98131.73
2023-02-26T00:55:16.149Z,98148.80
2023-02-26T00:56:18.715Z,98131.49
2023-02-26T00:57:21.997Z,98131.49
2023-02-26T00:58:24.705Z,98137.25
2023-02-26T00:59:27.240Z,98140.91
2023-02-26T01:00:30.356Z,98140.91
2023-02-26T01:01:33.016Z,98150.64
2023-02-26T01:02:36.285Z,98156.83
2023-02-26T01:03:39.418Z,98158.52
2023-02-26T01:04:43.662Z,98162.03
2023-02-26T01:05:46.878Z,98161.88
2023-02-26T01:06:54.284Z,98156.52
2023-02-26T01:08:15.894Z,98148.33
2023-02-26T01:10:34.991Z,98167.72
2023-02-26T01:11:38.178Z,98171.45
2023-02-26T01:12:41.052Z,98167.94
2023-02-26T01:13:45.273Z,98165.11
2023-02-26T01:14:49.826Z,98176.66
2023-02-26T01:15:58.728Z,98171.14
2023-02-26T01:17:31.108Z,98165.66
2023-02-26T01:18:45.679Z,98169.17
2023-02-26T01:19:57.405Z,98171.85
2023-02-26T01:21:03.493Z,98179.89
2023-02-26T01:22:09.851Z,98185.24
2023-02-26T01:23:15.486Z,98183.55
2023-02-26T01:24:18.982Z,98181.86
2023-02-26T01:25:40.896Z,98178.34
2023-02-26T01:26:44.427Z,98171.14
2023-02-26T01:27:48.231Z,98173.82
2023-02-26T01:28:51.628Z,98178.34
2023-02-26T01:29:55.195Z,98178.34
2023-02-26T01:31:00.206Z,98185.39
2023-02-26T01:32:24.726Z,98185.39
2023-02-26T01:33:32.746Z,98180.87
2023-02-26T01:34:55.983Z,98185.39
2023-02-26T01:37:24.701Z,98210.27
2023-02-26T01:38:34.502Z,98214.00
2023-02-26T01:39:42.557Z,98217.70
2023-02-26T01:41:24.643Z,98223.88
2023-02-26T01:42:27.232Z,98224.87
2023-02-26T01:43:54.749Z,98222.19
2023-02-26T01:45:32.088Z,98229.39
2023-02-26T01:47:06.464Z,98237.58
2023-02-26T01:48:19.028Z,98229.55
2023-02-26T01:49:22.178Z,98238.56
2023-02-26T01:50:29.735Z,98241.39
2023-02-26T01:51:46.339Z,98240.56
2023-02-26T01:52:52.917Z,98241.55
2023-02-26T01:53:57.237Z,98238.03
2023-02-26T01:54:59.839Z,98240.72
2023-02-26T01:56:05.715Z,98241.55
2023-02-26T01:57:13.309Z,98246.07
2023-02-26T01:58:17.388Z,98242.38
2023-02-26T01:59:21.945Z,98240.56
2023-02-26T02:00:24.601Z,98239.55
2023-02-26T02:01:29.128Z,98247.43
2023-02-26T02:02:32.633Z,98250.11
2023-02-26T02:03:38.390Z,98247.31
2023-02-26T02:04:41.731Z,98259.84
2023-02-26T02:06:05.714Z,98260.55
2023-02-26T02:07:08.383Z,98257.88
2023-02-26T02:08:12.026Z,98267.57
2023-02-26T02:09:14.660Z,98280.97
2023-02-26T02:10:18.139Z,98274.62
2023-02-26T02:11:21.787Z,98275.48
2023-02-26T02:12:40.214Z,98274.62
2023-02-26T02:14:02.099Z,98272.81
2023-02-26T02:15:11.636Z,98278.16
2023-02-26T02:17:50.843Z,98285.14
2023-02-26T02:19:03.170Z,98283.52
2023-02-26T02:20:18.520Z,98285.34
2023-02-26T02:21:44.646Z,98286.32
2023-02-26T02:22:58.727Z,98288.02
2023-02-26T02:24:11.084Z,98282.81
2023-02-26T02:25:33.991Z,98280.97
2023-02-26T02:26:58.393Z,98291.83
2023-02-26T02:28:21.552Z,98289.15
2023-02-26T02:29:43.124Z,98287.48
2023-02-26T02:31:18.524Z,98285.80
2023-02-26T02:32:24.096Z,98292.97
2023-02-26T02:33:30.283Z,98308.20
2023-02-26T02:34:39.648Z,98305.67
2023-02-26T02:35:44.833Z,98305.67
2023-02-26T02:37:02.517Z,98311.03
2023-02-26T02:38:16.962Z,98304.84
2023-02-26T02:40:49.456Z,98299.44
2023-02-26T02:42:02.303Z,98309.34
2023-02-26T02:43:10.633Z,98312.88
2023-02-26T02:44:17.074Z,98309.34
2023-02-26T02:45:23.364Z,98313.71
2023-02-26T02:46:29.343Z,98311.03
2023-02-26T02:47:33.883Z,98315.41
2023-02-26T02:48:39.940Z,98316.23
2023-02-26T02:49:47.014Z,98312.73
2023-02-26T02:51:10.316Z,98320.61
2023-02-26T02:52:18.021Z,98326.80
2023-02-26T02:53:23.618Z,98337.52
2023-02-26T02:54:32.771Z,98335.70
2023-02-26T02:55:37.909Z,98330.34
2023-02-26T02:56:44.545Z,98330.34
2023-02-26T02:57:53.678Z,98337.37
2023-02-26T03:00:14.937Z,98332.69
2023-02-26T03:01:19.169Z,98331.03
2023-02-26T03:02:39.994Z,98322.99
2023-02-26T03:04:04.240Z,98328.34
2023-02-26T03:05:07.027Z,98331.86
2023-02-26T03:06:10.768Z,98335.25
2023-02-26T03:07:14.288Z,98330.88
2023-02-26T03:08:20.529Z,98325.52
2023-02-26T03:09:23.005Z,98328.20
2023-02-26T03:10:26.874Z,98321.02
2023-02-26T03:11:31.383Z,98332.57
2023-02-26T03:12:35.195Z,98328.91
2023-02-26T03:13:39.171Z,98325.37
2023-02-26T03:14:44.072Z,98324.39
2023-02-26T03:16:20.627Z,98326.91
2023-02-26T03:17:48.450Z,98334.95
2023-02-26T03:20:25.575Z,98350.00
2023-02-26T03:21:32.113Z,98352.01
2023-02-26T03:22:59.496Z,98358.38
2023-02-26T03:24:14.683Z,98361.06
2023-02-26T03:25:20.945Z,98362.87
2023-02-26T03:26:36.197Z,98368.38
2023-02-26T03:29:26.224Z,98370.04
2023-02-26T03:30:57.373Z,98372.91
2023-02-26T03:33:49.912Z,98368.34
2023-02-26T03:36:16.812Z,98373.85
2023-02-26T03:37:27.942Z,98378.56
2023-02-26T03:38:40.333Z,98376.71
2023-02-26T03:39:46.124Z,98382.07
2023-02-26T03:42:26.953Z,98397.81
2023-02-26T03:43:51.849Z,98398.98
2023-02-26T03:46:22.048Z,98394.30
2023-02-26T03:47:25.000Z,98404.19
2023-02-26T03:48:29.568Z,98392.64
2023-02-26T03:50:54.603Z,98392.30
2023-02-26T03:52:01.707Z,98392.48
2023-02-26T03:53:08.968Z,98397.84
2023-02-26T03:54:17.178Z,98399.55
2023-02-26T03:55:26.429Z,98392.34
2023-02-26T03:56:48.703Z,98394.87
2023-02-26T03:58:09.556Z,98401.09
2023-02-26T03:59:15.746Z,98406.30
2023-02-26T04:00:19.369Z,98409.13
2023-02-26T04:01:24.986Z,98407.28
2023-02-26T04:02:52.913Z,98409.13
2023-02-26T04:03:58.818Z,98408.98
2023-02-26T04:06:30.782Z,98418.68
2023-02-26T04:07:34.235Z,98419.69
2023-02-26T04:08:37.403Z,98415.32
2023-02-26T04:09:42.331Z,98421.54
2023-02-26T04:10:47.386Z,98420.67
2023-02-26T04:11:51.447Z,98435.77
2023-02-26T04:12:54.964Z,98434.07
2023-02-26T04:13:57.438Z,98438.30
2023-02-26T04:15:00.856Z,98440.98
2023-02-26T04:16:03.749Z,98448.87
2023-02-26T04:17:06.452Z,98448.87
2023-02-26T04:18:10.928Z,98445.20
2023-02-26T04:19:13.740Z,98447.73
2023-02-26T04:20:18.079Z,98451.25
2023-02-26T04:21:21.344Z,98459.29
2023-02-26T04:22:24.031Z,98452.11
2023-02-26T04:23:27.766Z,98459.14
2023-02-26T04:24:30.585Z,98467.06
2023-02-26T04:25:35.366Z,98462.53
2023-02-26T04:26:38.237Z,98452.66
2023-02-26T04:27:42.142Z,98461.55
2023-02-26T04:28:44.784Z,98459.70
2023-02-26T04:29:47.589Z,98463.22
2023-02-26T04:30:50.310Z,98461.41
2023-02-26T04:31:54.476Z,98463.22
2023-02-26T04:32:57.310Z,98472.95
2023-02-26T04:34:00.744Z,98455.06
2023-02-26T04:35:03.921Z,98464.92
2023-02-26T04:36:07.658Z,98471.98
2023-02-26T04:37:11.877Z,98473.67
2023-02-26T04:38:14.472Z,98476.35
2023-02-26T04:39:19.006Z,98479.03
2023-02-26T04:40:23.511Z,98485.38
2023-02-26T04:41:26.884Z,98482.55
2023-02-26T04:42:29.461Z,98480.70
2023-02-26T04:43:32.334Z,98480.70
2023-02-26T04:44:36.818Z,98486.92
2023-02-26T04:45:39.390Z,98489.60
2023-02-26T04:46:41.960Z,98487.76
2023-02-26T04:47:45.350Z,98495.80
2023-02-26T04:48:48.522Z,98503.00
2023-02-26T04:49:51.004Z,98501.98
2023-02-26T04:50:53.908Z,98512.70
2023-02-26T04:51:57.684Z,98508.22
2023-02-26T04:53:00.870Z,98510.89
2023-02-26T04:54:04.454Z,98509.20
2023-02-26T04:55:07.812Z,98513.58
2023-02-26T04:56:12.658Z,98518.94
2023-02-26T04:57:16.265Z,98518.94
2023-02-26T04:58:20.266Z,98521.61
2023-02-26T04:59:22.916Z,98525.13
2023-02-26T05:00:26.952Z,98532.19
2023-02-26T05:01:30.036Z,98526.97
2023-02-26T05:02:33.978Z,98526.83
2023-02-26T05:03:37.800Z,98521.47
2023-02-26T05:04:40.520Z,98513.42
2023-02-26T05:05:43.327Z,98519.62
2023-02-26T05:06:47.035Z,98511.58
2023-02-26T05:07:50.302Z,98519.62
2023-02-26T05:08:53.202Z,98518.78
2023-02-26T05:09:57.502Z,98519.62
2023-02-26T05:11:00.672Z,98524.14
2023-02-26T05:12:03.864Z,98527.66
2023-02-26T05:13:06.821Z,98534.86
2023-02-26T05:14:09.600Z,98537.39
2023-02-26T05:15:12.814Z,98536.56
2023-02-26T05:16:17.129Z,98537.55
2023-02-26T05:17:21.518Z,98543.59
2023-02-26T05:18:24.226Z,98542.76
2023-02-26T05:19:26.950Z,98546.27
2023-02-26T05:20:30.338Z,98552.64
2023-02-26T05:21:34.722Z,98558.00
2023-02-26T05:22:38.311Z,98564.20
2023-02-26T05:23:40.962Z,98572.23
2023-02-26T05:24:43.511Z,98561.09
2023-02-26T05:25:47.382Z,98561.09
2023-02-26T05:26:50.190Z,98579.30
2023-02-26T05:27:52.768Z,98565.03
2023-02-26T05:28:56.518Z,98565.03
2023-02-26T05:29:59.298Z,98567.71
2023-02-26T05:31:03.369Z,98567.71
2023-02-26T05:32:06.358Z,98573.07
2023-02-26T05:33:09.049Z,98573.07
2023-02-26T05:34:11.515Z,98577.59
2023-02-26T05:35:14.272Z,98577.59
2023-02-26T05:36:17.995Z,98578.43
2023-02-26T05:37:20.487Z,98573.07
2023-02-26T05:38:23.142Z,98580.28
2023-02-26T05:39:25.488Z,98580.28
2023-02-26T05:40:28.429Z,98582.95
2023-02-26T05:41:31.932Z,98585.64
2023-02-26T05:42:34.766Z,98590.16
2023-02-26T05:43:38.890Z,98594.52
2023-02-26T05:44:42.572Z,98595.52
2023-02-26T05:45:45.646Z,98594.52
2023-02-26T05:46:48.203Z,98591.00
2023-02-26T05:47:51.163Z,98593.67
2023-02-26T05:48:54.109Z,98596.36
2023-02-26T05:49:56.507Z,98596.36
2023-02-26T05:50:59.892Z,98601.72
2023-02-26T05:52:02.852Z,98601.72
2023-02-26T05:53:05.647Z,98598.20
2023-02-26T05:54:10.243Z,98597.34
2023-02-26T05:55:13.121Z,98596.36
2023-02-26T05:56:17.828Z,98601.72
2023-02-26T05:57:21.044Z,98607.08
2023-02-26T05:58:24.078Z,98606.24
2023-02-26T05:59:27.787Z,98610.59
2023-02-26T06:00:30.376Z,98606.24
2023-02-26T06:01:33.544Z,98594.66
2023-02-26T06:02:36.172Z,98612.44
2023-02-26T06:03:40.710Z,98618.63
2023-02-26T06:05:57.069Z,98615.86
2023-02-26T06:07:00.841Z,98619.64
2023-02-26T06:08:04.756Z,98614.69
2023-02-26T06:09:07.635Z,98614.69
2023-02-26T06:10:12.227Z,98625.00
2023-02-26T06:11:14.737Z,98622.17
2023-02-26T06:12:17.433Z,98623.99
2023-02-26T06:13:20.010Z,98623.16
2023-02-26T06:14:22.978Z,98623.16
2023-02-26T06:15:29.613Z,98617.80
2023-02-26T06:16:32.734Z,98623.99
2023-02-26T06:17:35.736Z,98626.67
2023-02-26T06:18:39.099Z,98628.52
2023-02-26T06:19:41.863Z,98626.81
2023-02-26T06:20:44.817Z,98625.00
2023-02-26T06:21:48.770Z,98640.08
2023-02-26T06:22:51.749Z,98633.05
2023-02-26T06:23:54.434Z,98637.39
2023-02-26T06:24:58.005Z,98638.41
2023-02-26T06:26:01.255Z,98647.28
2023-02-26T06:27:03.852Z,98642.89
2023-02-26T06:28:06.355Z,98644.59
2023-02-26T06:29:09.596Z,98649.95
2023-02-26T06:30:13.306Z,98649.12
2023-02-26T06:31:15.840Z,98649.12
2023-02-26T06:32:19.046Z,98648.11
2023-02-26T06:33:22.051Z,98655.31
2023-02-26T06:34:24.723Z,98663.36
2023-02-26T06:36:41.258Z,98655.34
2023-02-26T06:37:44.194Z,98668.72
2023-02-26T06:38:47.853Z,98665.20
2023-02-26T06:39:50.901Z,98672.38
2023-02-26T06:40:53.486Z,98675.05
2023-02-26T06:41:56.074Z,98674.66
2023-02-26T06:42:59.696Z,98674.66
2023-02-26T06:44:02.270Z,98688.45
2023-02-26T06:45:05.740Z,98684.11
2023-02-26T06:46:10.473Z,98692.15
2023-02-26T06:47:13.779Z,98685.92
2023-02-26T06:48:18.599Z,98697.51
2023-02-26T06:49:21.874Z,98699.32
2023-02-26T06:50:24.430Z,98703.70
2023-02-26T06:51:29.513Z,98705.55
2023-02-26T06:52:33.643Z,98702.87
2023-02-26T06:53:36.153Z,98718.95
2023-02-26T06:54:39.151Z,98724.31
2023-02-26T06:55:47.148Z,98724.31
2023-02-26T06:56:49.749Z,98723.44
2023-02-26T06:57:54.101Z,98729.78
2023-02-26T06:58:57.652Z,98719.92
2023-02-26T07:00:02.921Z,98733.33
2023-02-26T07:01:05.678Z,98726.12
2023-02-26T07:02:14.951Z,98722.60
2023-02-26T07:03:19.062Z,98730.64
2023-02-26T07:04:21.574Z,98734.16
2023-02-26T07:05:24.758Z,98728.94
2023-02-26T07:06:28.310Z,98727.97
2023-02-26T07:07:31.535Z,98734.30
2023-02-26T07:08:34.854Z,98731.62
2023-02-26T07:09:38.515Z,98733.47
2023-02-26T07:10:41.896Z,98746.87
2023-02-26T07:11:45.077Z,98739.66
2023-02-26T07:12:48.183Z,98746.00
2023-02-26T07:13:52.002Z,98747.70
2023-02-26T07:14:54.663Z,98740.50
2023-02-26T07:15:57.093Z,98751.22
2023-02-26T07:17:00.342Z,98752.09
2023-02-26T07:18:03.673Z,98747.56
2023-02-26T07:19:06.745Z,98745.75
2023-02-26T07:20:11.579Z,98748.42
2023-02-26T07:21:14.484Z,98750.09
2023-02-26T07:22:21.425Z,98755.45
2023-02-26T07:23:24.452Z,98754.62
2023-02-26T07:24:29.105Z,98761.69
2023-02-26T07:25:31.946Z,98756.33
2023-02-26T07:26:35.255Z,98761.69
2023-02-26T07:27:37.971Z,98758.00
2023-02-26T07:28:40.579Z,98757.16
2023-02-26T07:29:43.365Z,98766.03
2023-02-26T07:30:46.779Z,98766.03
2023-02-26T07:31:49.446Z,98763.36
2023-02-26T07:32:52.074Z,98769.58
2023-02-26T07:33:54.997Z,98766.03
2023-02-26T07:34:57.740Z,98772.27
2023-02-26T07:36:01.630Z,98777.62
2023-02-26T07:37:04.451Z,98764.22
2023-02-26T07:38:07.089Z,98767.73
2023-02-26T07:39:11.508Z,98770.42
2023-02-26T07:40:14.761Z,98771.29
2023-02-26T07:41:17.321Z,98771.29
2023-02-26T07:42:19.871Z,98771.29
2023-02-26T07:43:23.324Z,98777.48
2023-02-26T07:44:25.941Z,98777.48
2023-02-26T07:45:28.324Z,98770.28
2023-02-26T07:46:31.123Z,98772.13
2023-02-26T07:47:34.047Z,98777.48
2023-02-26T07:48:36.655Z,98780.16
2023-02-26T07:49:39.700Z,98782.01
2023-02-26T07:51:58.365Z,98787.13
2023-02-26T07:53:01.970Z,98783.68
2023-02-26T07:54:04.599Z,98786.36
2023-02-26T07:55:08.582Z,98780.02
2023-02-26T07:56:11.495Z,98785.38
2023-02-26T07:57:14.203Z,98781.87
2023-02-26T07:58:17.464Z,98788.90
2023-02-26T07:59:19.966Z,98790.60
2023-02-26T08:00:23.007Z,98785.24
2023-02-26T08:01:25.612Z,98783.43
2023-02-26T08:02:28.737Z,98791.33
2023-02-26T08:03:31.706Z,98791.33
2023-02-26T08:04:37.395Z,98785.09
2023-02-26T08:05:40.024Z,98787.78
2023-02-26T08:06:43.236Z,98802.92
2023-02-26T08:07:47.218Z,98795.71
2023-02-26T08:08:49.720Z,98795.82
2023-02-26T08:09:53.687Z,98788.65
2023-02-26T08:11:01.334Z,98791.33
2023-02-26T08:12:05.064Z,98795.82
2023-02-26T08:13:08.622Z,98795.82
2023-02-26T08:14:11.452Z,98804.73
2023-02-26T08:15:15.194Z,98801.19
2023-02-26T08:16:18.542Z,98807.41
2023-02-26T08:17:22.109Z,98803.02
2023-02-26T08:18:25.051Z,98809.22
2023-02-26T08:19:27.485Z,98806.54
2023-02-26T08:20:30.572Z,98806.54
2023-02-26T08:21:33.565Z,98806.54
2023-02-26T08:22:36.285Z,98802.05
2023-02-26T08:23:40.240Z,98804.73
2023-02-26T08:24:43.746Z,98796.69
2023-02-26T08:25:47.139Z,98806.44
2023-02-26T08:26:50.837Z,98809.11
2023-02-26T08:27:53.432Z,98809.98
2023-02-26T08:28:57.029Z,98808.14
2023-02-26T08:29:59.884Z,98788.53
2023-02-26T08:31:02.619Z,98798.39
2023-02-26T08:32:05.426Z,98803.75
2023-02-26T08:33:08.548Z,98793.90
2023-02-26T08:34:11.180Z,98801.94
2023-02-26T08:35:14.736Z,98799.27
2023-02-26T08:36:18.655Z,98799.27
2023-02-26T08:37:23.958Z,98800.09
2023-02-26T08:38:27.360Z,98800.09
2023-02-26T08:39:31.797Z,98805.45
2023-02-26T08:40:34.661Z,98809.84
2023-02-26T08:41:37.818Z,98817.02
2023-02-26T08:42:40.737Z,98810.67
2023-02-26T08:43:43.547Z,98813.36
2023-02-26T08:44:46.735Z,98815.20
2023-02-26T08:45:54.230Z,98822.38
2023-02-26T08:46:58.058Z,98829.44
2023-02-26T08:48:00.870Z,98832.98
2023-02-26T08:49:04.508Z,98829.44
2023-02-26T08:50:12.424Z,98823.24
2023-02-26T08:51:15.200Z,98833.97
2023-02-26T08:52:17.789Z,98835.78
2023-02-26T08:53:20.341Z,98833.97
2023-02-26T08:54:23.252Z,98835.78
2023-02-26T08:55:26.566Z,98844.69
2023-02-26T08:56:29.542Z,98843.82
2023-02-26T08:57:32.373Z,98843.82
2023-02-26T08:58:34.875Z,98841.14
2023-02-26T08:59:37.338Z,98850.88
2023-02-26T09:00:40.074Z,98859.07
2023-02-26T09:01:44.663Z,98859.91
2023-02-26T09:02:47.604Z,98855.41
2023-02-26T09:03:52.148Z,98860.77
2023-02-26T09:04:54.747Z,98857.22
2023-02-26T09:05:57.331Z,98864.29
2023-02-26T09:07:00.705Z,98859.91
2023-02-26T09:08:04.345Z,98859.07
2023-02-26T09:09:07.010Z,98850.19
2023-02-26T09:10:11.236Z,98856.39
2023-02-26T09:11:15.010Z,98858.23
2023-02-26T09:12:17.940Z,98866.27
2023-02-26T09:13:21.686Z,98865.41
2023-02-26T09:14:24.473Z,98863.59
2023-02-26T09:15:27.323Z,98861.02
2023-02-26T09:16:32.404Z,98869.06
2023-02-26T09:17:35.813Z,98877.97
2023-02-26T09:18:38.655Z,98869.06
2023-02-26T09:19:41.179Z,98877.10
2023-02-26T09:20:45.129Z,98874.42
2023-02-26T09:21:48.088Z,98875.39
2023-02-26T09:22:50.688Z,98880.76
2023-02-26T09:23:58.478Z,98886.13
2023-02-26T09:25:02.788Z,98887.83
2023-02-26T09:26:07.943Z,98884.27
2023-02-26T09:27:12.413Z,98883.44
2023-02-26T09:28:17.805Z,98883.44
2023-02-26T09:29:20.599Z,98884.41
2023-02-26T09:30:23.435Z,98897.12
2023-02-26T09:31:28.832Z,98893.57
2023-02-26T09:32:33.597Z,98901.75
2023-02-26T09:33:37.188Z,98893.84
2023-02-26T09:34:41.266Z,98902.86
2023-02-26T09:35:44.426Z,98903.87
2023-02-26T09:36:48.663Z,98905.69
2023-02-26T09:37:51.397Z,98899.48
2023-02-26T09:38:54.204Z,98903.98
2023-02-26T09:39:57.835Z,98908.36
2023-02-26T09:42:28.617Z,98915.75
2023-02-26T09:43:59.289Z,98922.17
2023-02-26T09:45:01.880Z,98908.05
2023-02-26T09:46:09.358Z,98918.06
2023-02-26T09:47:16.555Z,98914.55
2023-02-26T09:48:19.663Z,98918.06
2023-02-26T09:50:41.092Z,98907.53
2023-02-26T09:51:43.970Z,98912.11
2023-02-26T09:53:08.829Z,98917.61
2023-02-26T09:54:17.920Z,98920.42
2023-02-26T09:55:28.581Z,98920.42
2023-02-26T09:56:33.274Z,98914.23
2023-02-26T09:57:38.031Z,98918.86
2023-02-26T09:58:45.002Z,98920.70
2023-02-26T09:59:47.450Z,98918.02
2023-02-26T10:01:12.296Z,98913.63
2023-02-26T10:02:40.321Z,98915.48
2023-02-26T10:03:56.155Z,98914.61
2023-02-26T10:05:09.180Z,98917.28
2023-02-26T10:06:30.524Z,98906.09
2023-02-26T10:07:46.480Z,98915.05
2023-02-26T10:10:36.070Z,98900.41
2023-02-26T10:13:01.436Z,98907.84
2023-02-26T10:15:25.098Z,98905.33
2023-02-26T10:16:30.369Z,98908.67
2023-02-26T10:17:58.283Z,98898.68
2023-02-26T10:20:27.353Z,98911.73
2023-02-26T10:21:39.450Z,98908.58
2023-02-26T10:22:48.315Z,98911.73
2023-02-26T10:23:56.651Z,98904.17
2023-02-26T10:25:15.982Z,98907.16
2023-02-26T10:26:22.553Z,98909.46
2023-02-26T10:27:35.996Z,98896.55
2023-02-26T10:29:12.944Z,98902.47
2023-02-26T10:30:30.495Z,98907.45
2023-02-26T10:31:40.061Z,98901.73
2023-02-26T10:33:01.810Z,98901.45
2023-02-26T10:34:23.589Z,98895.97
2023-02-26T10:35:29.228Z,98912.64
2023-02-26T10:36:55.657Z,98907.14
2023-02-26T10:38:04.339Z,98912.37
2023-02-26T10:39:20.214Z,98917.59
2023-02-26T10:40:42.015Z,98918.32
2023-02-26T10:41:44.513Z,98929.73
2023-02-26T10:45:40.178Z,98924.76
2023-02-26T10:47:07.569Z,98930.06
2023-02-26T10:48:30.594Z,98928.95
2023-02-26T10:49:45.814Z,98925.27
2023-02-26T10:52:12.271Z,98940.02
2023-02-26T10:53:14.754Z,98928.41
2023-02-26T10:55:47.217Z,98927.22
2023-02-26T10:56:50.549Z,98933.36
2023-02-26T10:59:16.936Z,98937.42
2023-02-26T11:00:20.728Z,98933.69
2023-02-26T11:01:26.649Z,98939.05
2023-02-26T11:02:39.505Z,98936.23
2023-02-26T11:03:49.597Z,98937.94
2023-02-26T11:05:06.836Z,98945.70
2023-02-26T11:06:03.156Z,98948.24
2023-02-26T11:07:06.530Z,98942.78
2023-02-26T11:08:14.512Z,98956.87
2023-02-26T11:09:23.820Z,98940.80
2023-02-26T11:10:30.323Z,98945.19
2023-02-26T11:11:52.755Z,98953.09
2023-02-26T11:12:55.244Z,98952.11
2023-02-26T11:13:59.118Z,98953.78
2023-02-26T11:15:02.049Z,98950.97
2023-02-26T11:16:16.011Z,98965.24
2023-02-26T11:18:41.993Z,98959.68
2023-02-26T11:20:08.919Z,98969.48
2023-02-26T11:21:18.548Z,98965.10
2023-02-26T11:22:21.800Z,98963.27
2023-02-26T11:23:27.776Z,98965.94
2023-02-26T11:24:46.418Z,98966.81
2023-02-26T11:26:08.667Z,98964.97
2023-02-26T11:28:32.794Z,98965.77
2023-02-26T11:29:39.216Z,98979.10
2023-02-26T11:30:42.708Z,98974.72
2023-02-26T11:33:24.087Z,98974.66
2023-02-26T11:34:27.057Z,98984.47
2023-02-26T11:35:29.732Z,98982.62
2023-02-26T11:36:34.018Z,98978.09
2023-02-26T11:37:38.789Z,98985.19
2023-02-26T11:38:57.043Z,98983.35
2023-02-26T11:40:09.496Z,98986.03
2023-02-26T11:41:14.040Z,98992.27
2023-02-26T11:42:18.915Z,98990.42
2023-02-26T11:43:23.179Z,98995.92
2023-02-26T11:45:45.351Z,98994.98
2023-02-26T11:46:58.828Z,99003.23
2023-02-26T11:48:04.609Z,98997.00
2023-02-26T11:49:08.781Z,99002.36
2023-02-26T11:51:29.915Z,99002.44
2023-02-26T11:53:52.563Z,99004.42
2023-02-26T11:56:22.250Z,99008.21
2023-02-26T11:57:27.781Z,99009.10
2023-02-26T11:58:34.511Z,99015.44
2023-02-26T11:59:37.939Z,99019.82
2023-02-26T12:00:40.757Z,99018.11
2023-02-26T12:01:44.289Z,99009.23
2023-02-26T12:02:47.267Z,99012.89
2023-02-26T12:03:51.746Z,99011.08
2023-02-26T12:04:59.043Z,99009.23
2023-02-26T12:06:04.798Z,99016.44
2023-02-26T12:07:14.909Z,99009.38
2023-02-26T12:08:23.990Z,99012.19
2023-02-26T12:09:29.448Z,99011.31
2023-02-26T12:12:25.984Z,99014.05
2023-02-26T12:14:49.536Z,99014.33
2023-02-26T12:15:58.840Z,99022.44
2023-02-26T12:17:25.127Z,99034.13
2023-02-26T12:18:48.960Z,99028.77
2023-02-26T12:21:51.201Z,99036.64
2023-02-26T12:24:47.829Z,99042.97
2023-02-26T12:25:57.958Z,99040.36
2023-02-26T12:27:08.506Z,99043.88
2023-02-26T12:28:27.111Z,99046.56
2023-02-26T12:29:48.314Z,99051.92
2023-02-26T12:31:23.979Z,99041.20
2023-02-26T12:34:02.203Z,99047.36
2023-02-26T12:35:18.450Z,99047.40
2023-02-26T12:38:00.708Z,99059.05
2023-02-26T12:39:19.509Z,99061.67
2023-02-26T12:40:51.436Z,99065.32
2023-02-26T12:42:08.032Z,99073.23
2023-02-26T12:43:20.358Z,99067.03
2023-02-26T12:44:34.954Z,99069.70
2023-02-26T12:45:41.566Z,99066.06
2023-02-26T12:48:32.205Z,99059.89
2023-02-26T12:50:06.194Z,99063.37
2023-02-26T12:51:28.312Z,99071.52
2023-02-26T12:54:15.262Z,99071.48
2023-02-26T12:57:08.423Z,99060.86
2023-02-26T12:58:42.978Z,99069.84
2023-02-26T13:01:11.521Z,99071.58
2023-02-26T13:02:53.242Z,99086.77
2023-02-26T13:04:21.009Z,99076.88
2023-02-26T13:05:58.526Z,99082.23
2023-02-26T13:08:38.520Z,99090.34
2023-02-26T13:09:49.684Z,99097.61
2023-02-26T13:10:59.289Z,99088.73
2023-02-26T13:12:06.111Z,99087.86
2023-02-26T13:13:29.504Z,99086.05
2023-02-26T13:14:59.226Z,99090.41
2023-02-26T13:16:20.778Z,99101.13
2023-02-26T13:17:32.871Z,99098.32
2023-02-26T13:19:01.693Z,99105.52
2023-02-26T13:20:26.171Z,99120.62
2023-02-26T13:21:42.263Z,99114.40
2023-02-26T13:22:47.822Z,99111.84
2023-02-26T13:25:29.052Z,99110.81
2023-02-26T13:26:33.291Z,99108.20
2023-02-26T13:27:37.625Z,99100.16
2023-02-26T13:29:01.778Z,99112.59
2023-02-26T13:30:20.591Z,99105.39
2023-02-26T13:31:31.416Z,99114.30
2023-02-26T13:32:35.103Z,99118.66
2023-02-26T13:33:38.405Z,99123.05
2023-02-26T13:34:46.700Z,99133.77
2023-02-26T13:35:49.953Z,99130.11
2023-02-26T13:36:55.630Z,99130.95
2023-02-26T13:38:00.041Z,99130.95
2023-02-26T13:39:12.534Z,99140.70
2023-02-26T13:40:51.241Z,99137.89
2023-02-26T13:42:20.983Z,99137.05
2023-02-26T13:45:12.908Z,99141.51
2023-02-26T13:46:24.977Z,99138.86
2023-02-26T13:47:39.751Z,99145.19
2023-02-26T13:49:05.061Z,99148.74
2023-02-26T13:50:29.665Z,99151.42
2023-02-26T13:53:29.215Z,99150.52
2023-02-26T13:54:43.685Z,99150.55
2023-02-26T13:55:48.180Z,99154.23
2023-02-26T13:57:06.817Z,99161.27
2023-02-26T13:58:28.262Z,99159.59
2023-02-26T13:59:45.562Z,99156.91
2023-02-26T14:01:06.686Z,99153.23
2023-02-26T14:02:21.696Z,99162.98
2023-02-26T14:03:29.909Z,99159.46
2023-02-26T14:04:33.686Z,99161.27
2023-02-26T14:05:45.461Z,99150.55
2023-02-26T14:08:18.994Z,99155.02
2023-02-26T14:09:26.601Z,99156.78
2023-02-26T14:10:44.905Z,99158.49
2023-02-26T14:12:05.356Z,99163.72
2023-02-26T14:13:21.932Z,99165.39
2023-02-26T14:14:36.438Z,99167.23
2023-02-26T14:17:19.722Z,99170.77
2023-02-26T14:18:31.278Z,99168.08
2023-02-26T14:19:53.229Z,99165.39
2023-02-26T14:21:17.010Z,99168.08
2023-02-26T14:22:25.339Z,99172.60
2023-02-26T14:25:02.130Z,99175.26
2023-02-26T14:26:08.613Z,99176.98
2023-02-26T14:27:15.637Z,99181.38
2023-02-26T14:28:28.990Z,99176.86
2023-02-26T14:29:59.081Z,99185.61